Terminal Aerodrome Forecast
Issued by NWS Omaha/Valley, NE

Home | Current Version | Previous Version | Text Only | Print | Product List | Glossary On
Versions: 1 2 3 4 5 6 7 8 9 10 11 12 13 14 15 16 17 18 19 20 21 22 23 24 25 26 27 28 29 30 31 32 33
000
FTUS43 KOAX 161734
TAFOFK
TAF
KOFK 161734Z 1618/1718 19013G19KT P6SM SKC
     FM162200 19006KT P6SM BKN035
     FM170400 20006KT P6SM SCT250
     FM171100 VRB05KT 4SM BR SKC
     FM171200 VRB05KT 1/2SM FG SKC
     FM171300 VRB05KT 1 1/2SM BR SKC
     FM171400 VRB05KT 4SM BR SKC
     FM171500 16007KT P6SM BKN250=

USA.gov is the U.S. government's official web portal to all federal, state and local government web resources and services.